Pires Coelho — CUPM6 — position and weather

sailwx.info

Track history (hours):
 
Tides and Currents Weather Stations Pressure Air Temp Water Temp Dewpoint Dewpoint Depression Visibility Wind Speed Wind Dir Waves Ship Positions

Pires Coelho

Last reported at 2016-Jul-27 05:31 UTC. Time now 2016-Jul-27 05:47 UTC.
Position N 36°52' W 007°57'.

Length 27 m.

Type: Ship. MMSI: 263236000.

Date/timePositionNaut miles runAvg speedWind from/ knotsBaromVisibWave heightAir tempDewpointWater temp
2016-Jul-27 05:31N 36°52' W 007°57'  
2016-Jul-24 04:17N 36°54' W 008°21'6 8.9
2016-Jul-24 03:33N 36°59' W 008°26'9 8.8
2016-Jul-24 02:33N 37°07' W 008°31'1 0.9
2016-Jul-24 01:24N 37°08' W 008°32'0 0.0
2016-Jul-24 00:22N 37°08' W 008°32'0 0.0
2016-Jul-23 23:31N 37°08' W 008°32'0 0.0
2016-Jul-23 22:19N 37°08' W 008°32'0 0.0
2016-Jul-23 21:29N 37°08' W 008°32'0 0.0
2016-Jul-23 20:29N 37°08' W 008°32'0 0.0
2016-Jul-23 19:19N 37°08' W 008°32'0 0.0
2016-Jul-23 18:34N 37°08' W 008°32'0 0.0
2016-Jul-23 17:31N 37°08' W 008°32'0 0.0
2016-Jul-23 16:33N 37°08' W 008°32'1 1.3
2016-Jul-23 15:33N 37°07' W 008°32'1010.0
2016-Jul-23 14:33N 36°59' W 008°24'1010.1
2016-Jul-23 13:33N 36°51' W 008°16'7 3.2
2016-Jul-23 11:28N 36°49' W 008°08'12 0.4
2016-Jul-22 02:33N 36°59' W 008°16'1010.0
2016-Jul-22 01:33N 37°04' W 008°27'6 5.5
2016-Jul-22 00:31N 37°08' W 008°32'0 0.0
2016-Jul-21 23:25N 37°08' W 008°32'0 0.0
2016-Jul-21 22:25N 37°08' W 008°32'0 0.0
2016-Jul-21 21:31N 37°08' W 008°32'0 0.0
2016-Jul-21 20:25N 37°08' W 008°32'1 0.8
2016-Jul-21 19:33N 37°07' W 008°32'9 8.8
2016-Jul-21 18:33N 37°03' W 008°22'20 0.8
2016-Jul-20 18:21N 36°48' W 008°06'2 3.0
2016-Jul-20 17:34N 36°48' W 008°08'2 1.6
2016-Jul-20 16:26N 36°48' W 008°11'5 1.1
2016-Jul-20 11:25N 36°48' W 008°17'13 1.4
2016-Jul-20 02:33N 37°00' W 008°17'9 9.2
2016-Jul-20 01:33N 37°04' W 008°28'5 4.2
2016-Jul-20 00:22N 37°08' W 008°32'0 0.0
2016-Jul-19 23:23N 37°08' W 008°32'0 0.0
2016-Jul-19 22:29N 37°08' W 008°32'0 0.0
2016-Jul-19 21:29N 37°08' W 008°32'0 0.0
2016-Jul-19 20:13N 37°08' W 008°32'0 0.0
2016-Jul-19 19:04N 37°08' W 008°32'0 0.0
2016-Jul-19 17:22N 37°08' W 008°32'0 0.0
2016-Jul-19 16:31N 37°08' W 008°32'2 2.6
2016-Jul-19 15:33N 37°06' W 008°33'9 8.9
2016-Jul-19 14:33N 37°02' W 008°44'18 0.5
2016-Jul-18 03:31N 36°57' W 008°22'8 8.5
2016-Jul-18 02:33N 37°03' W 008°29'5 2.2
2016-Jul-18 00:11N 37°08' W 008°32'0 0.0
2016-Jul-17 23:21N 37°08' W 008°32'0 0.0
2016-Jul-17 21:22N 37°08' W 008°32'0 0.0
2016-Jul-17 20:16N 37°08' W 008°32'0 0.0
2016-Jul-17 19:32N 37°08' W 008°32'0 0.1
2016-Jul-17 18:33N 37°08' W 008°32'9 9.3
2016-Jul-17 17:33N 37°02' W 008°23'1110.5
2016-Jul-17 16:33N 36°56' W 008°12'7 6.2
2016-Jul-17 15:23N 36°52' W 008°05'2 2.7
2016-Jul-17 14:33N 36°51' W 008°02'4 3.1
2016-Jul-17 13:06N 36°52' W 007°57'2 1.6
2016-Jul-17 11:33N 36°51' W 007°60'  
Track history (hours):
 
Tides and Currents Weather Stations Pressure Air Temp Water Temp Dewpoint Dewpoint Depression Visibility Wind Speed Wind Dir Waves Ship Positions

Pires Coelho

Last reported at 2016-Jul-27 05:31 UTC. Time now 2016-Jul-27 05:47 UTC.
Position N 36°52' W 007°57'.

Length 27 m.

Type: Ship. MMSI: 263236000.

Date/timePositionNaut miles runAvg speedWind from/ knotsBaromVisibWave heightAir tempDewpointWater temp
2016-Jul-27 05:31N 36°52' W 007°57'  
2016-Jul-24 04:17N 36°54' W 008°21'6 8.9
2016-Jul-24 03:33N 36°59' W 008°26'9 8.8
2016-Jul-24 02:33N 37°07' W 008°31'1 0.9
2016-Jul-24 01:24N 37°08' W 008°32'0 0.0
2016-Jul-24 00:22N 37°08' W 008°32'0 0.0
2016-Jul-23 23:31N 37°08' W 008°32'0 0.0
2016-Jul-23 22:19N 37°08' W 008°32'0 0.0
2016-Jul-23 21:29N 37°08' W 008°32'0 0.0
2016-Jul-23 20:29N 37°08' W 008°32'0 0.0
2016-Jul-23 19:19N 37°08' W 008°32'0 0.0
2016-Jul-23 18:34N 37°08' W 008°32'0 0.0
2016-Jul-23 17:31N 37°08' W 008°32'0 0.0
2016-Jul-23 16:33N 37°08' W 008°32'1 1.3
2016-Jul-23 15:33N 37°07' W 008°32'1010.0
2016-Jul-23 14:33N 36°59' W 008°24'1010.1
2016-Jul-23 13:33N 36°51' W 008°16'7 3.2
2016-Jul-23 11:28N 36°49' W 008°08'12 0.4
2016-Jul-22 02:33N 36°59' W 008°16'1010.0
2016-Jul-22 01:33N 37°04' W 008°27'6 5.5
2016-Jul-22 00:31N 37°08' W 008°32'0 0.0
2016-Jul-21 23:25N 37°08' W 008°32'0 0.0
2016-Jul-21 22:25N 37°08' W 008°32'0 0.0
2016-Jul-21 21:31N 37°08' W 008°32'0 0.0
2016-Jul-21 20:25N 37°08' W 008°32'1 0.8
2016-Jul-21 19:33N 37°07' W 008°32'9 8.8
2016-Jul-21 18:33N 37°03' W 008°22'20 0.8
2016-Jul-20 18:21N 36°48' W 008°06'2 3.0
2016-Jul-20 17:34N 36°48' W 008°08'2 1.6
2016-Jul-20 16:26N 36°48' W 008°11'5 1.1
2016-Jul-20 11:25N 36°48' W 008°17'13 1.4
2016-Jul-20 02:33N 37°00' W 008°17'9 9.2
2016-Jul-20 01:33N 37°04' W 008°28'5 4.2
2016-Jul-20 00:22N 37°08' W 008°32'0 0.0
2016-Jul-19 23:23N 37°08' W 008°32'0 0.0
2016-Jul-19 22:29N 37°08' W 008°32'0 0.0
2016-Jul-19 21:29N 37°08' W 008°32'0 0.0
2016-Jul-19 20:13N 37°08' W 008°32'0 0.0
2016-Jul-19 19:04N 37°08' W 008°32'0 0.0
2016-Jul-19 17:22N 37°08' W 008°32'0 0.0
2016-Jul-19 16:31N 37°08' W 008°32'2 2.6
2016-Jul-19 15:33N 37°06' W 008°33'9 8.9
2016-Jul-19 14:33N 37°02' W 008°44'18 0.5
2016-Jul-18 03:31N 36°57' W 008°22'8 8.5
2016-Jul-18 02:33N 37°03' W 008°29'5 2.2
2016-Jul-18 00:11N 37°08' W 008°32'0 0.0
2016-Jul-17 23:21N 37°08' W 008°32'0 0.0
2016-Jul-17 21:22N 37°08' W 008°32'0 0.0
2016-Jul-17 20:16N 37°08' W 008°32'0 0.0
2016-Jul-17 19:32N 37°08' W 008°32'0 0.1
2016-Jul-17 18:33N 37°08' W 008°32'9 9.3
2016-Jul-17 17:33N 37°02' W 008°23'1110.5
2016-Jul-17 16:33N 36°56' W 008°12'7 6.2
2016-Jul-17 15:23N 36°52' W 008°05'2 2.7
2016-Jul-17 14:33N 36°51' W 008°02'4 3.1
2016-Jul-17 13:06N 36°52' W 007°57'2 1.6
2016-Jul-17 11:33N 36°51' W 007°60'  

Dump ship's entire track history